Booker, TX (79005)

12:20 PM CDT on July 24, 2016 (GMT -0500)
Zender Laundromat | | Change Station

Elev 2844 ft 36.45 °N, 100.54 °W | Updated 6 seconds ago

Clear
Clear
93.2 °F
Feels Like 93 °F
N
15.9
Wind Variable Wind from SW
Gusts 16.8 mph

Today
High -- | Low -- °F
--% Chance of Precip.
Yesterday
High -- | Low -- °F
Precip. -- in
Pressure 30.03 in
Visibility 10.0 miles
Clouds Clear
Heat Index 93 °F
Dew Point 59 °F
Humidity 32%
Rainfall 0.05 in
Snow Depth Not available.
6:42 AM 8:54 PM
Waning Gibbous, 74% visible
METAR KPYX 241715Z AUTO 22013G16KT 10SM CLR 35/15 A3003 RMK AO2 T03520150
Pressure 30.03 in
Visibility 10.0 miles
Clouds Clear
Heat Index 93 °F
Dew Point 59 °F
Humidity 32%
Rainfall 0.05 in
Snow Depth Not available.
6:42 AM 8:54 PM
Waning Gibbous, 74% visible
METAR KPYX 241715Z AUTO 22013G16KT 10SM CLR 35/15 A3003 RMK AO2 T03520150

10-Day Weather Forecast

Almanac

Astronomy

Jul. 24, 2016 Rise Set
Actual Time
Civil Twilight
Nautical Twilight
Astronomical Twilight
Moon
Length of Visible Light
Length of Day
Tomorrow will be .
, % of the Moon is Illuminated

Today's Extremes

State Highs State Lows

Community

WunderPhotos

Upload Photos

1,927,125 photos uploaded!

WunderBlog® & News

Nearby

Air Quality

  Air Quality AQ Index Pollutant
Not available.

Snow Depth

Station Depth Elevation

Earthquake Activity

City Distance Mag. Time & Date
Minimum magnitude displayed is 2.5.

Coastal Water Temperatures

Place Temperature

Stations

Nearby Weather Stations

Station Location Temp. Windchill Dew Point Humidity Wind Precip. Elev Updated Type
                   

Watches & Warnings

There are currently no watches in effect.